sensor_id;sensor_type;location;lat;lon;timestamp;temperature;humidity
8114;DHT22;4099;52.684;9.918;2023-05-29T00:02:37;11.50;99.90
8114;DHT22;4099;52.684;9.918;2023-05-29T00:07:39;11.50;99.90
8114;DHT22;4099;52.684;9.918;2023-05-29T00:12:41;11.60;99.90
8114;DHT22;4099;52.684;9.918;2023-05-29T00:17:47;11.70;99.90
8114;DHT22;4099;52.684;9.918;2023-05-29T00:22:49;11.90;99.90
8114;DHT22;4099;52.684;9.918;2023-05-29T00:27:51;12.00;99.90
8114;DHT22;4099;52.684;9.918;2023-05-29T00:32:54;12.00;99.90
8114;DHT22;4099;52.684;9.918;2023-05-29T00:37:57;12.10;99.90
8114;DHT22;4099;52.684;9.918;2023-05-29T00:42:59;12.10;99.90
8114;DHT22;4099;52.684;9.918;2023-05-29T00:48:02;12.10;99.90
8114;DHT22;4099;52.684;9.918;2023-05-29T00:53:05;12.10;99.90
8114;DHT22;4099;52.684;9.918;2023-05-29T00:58:08;12.10;99.90
8114;DHT22;4099;52.684;9.918;2023-05-29T01:03:12;12.10;99.90
8114;DHT22;4099;52.684;9.918;2023-05-29T01:08:17;12.10;99.90
8114;DHT22;4099;52.684;9.918;2023-05-29T01:13:22;12.20;99.90
8114;DHT22;4099;52.684;9.918;2023-05-29T01:18:34;12.20;99.90
8114;DHT22;4099;52.684;9.918;2023-05-29T01:23:57;12.20;99.90
8114;DHT22;4099;52.684;9.918;2023-05-29T01:29:05;12.20;99.90
8114;DHT22;4099;52.684;9.918;2023-05-29T01:34:08;12.10;99.90
8114;DHT22;4099;52.684;9.918;2023-05-29T01:39:10;12.10;99.90
8114;DHT22;4099;52.684;9.918;2023-05-29T01:44:14;12.20;99.90
8114;DHT22;4099;52.684;9.918;2023-05-29T01:49:17;12.10;99.90
8114;DHT22;4099;52.684;9.918;2023-05-29T01:54:19;12.10;99.90
8114;DHT22;4099;52.684;9.918;2023-05-29T01:59:23;12.00;99.90
8114;DHT22;4099;52.684;9.918;2023-05-29T02:04:25;12.00;99.90
8114;DHT22;4099;52.684;9.918;2023-05-29T02:09:27;11.90;99.90
8114;DHT22;4099;52.684;9.918;2023-05-29T02:14:30;11.80;99.90
8114;DHT22;4099;52.684;9.918;2023-05-29T02:19:33;11.70;99.90
8114;DHT22;4099;52.684;9.918;2023-05-29T02:24:35;11.70;99.90
8114;DHT22;4099;52.684;9.918;2023-05-29T02:29:38;11.60;99.90
8114;DHT22;4099;52.684;9.918;2023-05-29T02:34:40;11.60;99.90
8114;DHT22;4099;52.684;9.918;2023-05-29T02:39:42;11.60;99.90
8114;DHT22;4099;52.684;9.918;2023-05-29T02:44:45;11.70;99.90
8114;DHT22;4099;52.684;9.918;2023-05-29T02:49:46;11.60;99.90
8114;DHT22;4099;52.684;9.918;2023-05-29T02:54:48;11.50;99.90
8114;DHT22;4099;52.684;9.918;2023-05-29T02:59:51;11.50;99.90
8114;DHT22;4099;52.684;9.918;2023-05-29T03:04:53;11.50;99.90
8114;DHT22;4099;52.684;9.918;2023-05-29T03:09:55;11.50;99.90
8114;DHT22;4099;52.684;9.918;2023-05-29T03:14:59;11.60;99.90
8114;DHT22;4099;52.684;9.918;2023-05-29T03:20:03;11.50;99.90
8114;DHT22;4099;52.684;9.918;2023-05-29T03:25:07;11.50;99.90
8114;DHT22;4099;52.684;9.918;2023-05-29T03:30:12;11.50;99.90
8114;DHT22;4099;52.684;9.918;2023-05-29T03:35:14;11.50;99.90
8114;DHT22;4099;52.684;9.918;2023-05-29T03:40:18;11.50;99.90
8114;DHT22;4099;52.684;9.918;2023-05-29T03:45:21;11.40;99.90
8114;DHT22;4099;52.684;9.918;2023-05-29T03:50:23;11.20;99.90
8114;DHT22;4099;52.684;9.918;2023-05-29T03:55:26;11.10;99.90
8114;DHT22;4099;52.684;9.918;2023-05-29T04:00:30;11.10;99.90
8114;DHT22;4099;52.684;9.918;2023-05-29T04:05:36;11.00;99.90
8114;DHT22;4099;52.684;9.918;2023-05-29T04:10:38;11.00;99.90
8114;DHT22;4099;52.684;9.918;2023-05-29T04:15:41;11.10;99.90
8114;DHT22;4099;52.684;9.918;2023-05-29T04:20:43;11.10;99.90
8114;DHT22;4099;52.684;9.918;2023-05-29T04:25:47;11.10;99.90
8114;DHT22;4099;52.684;9.918;2023-05-29T04:30:56;11.20;99.90
8114;DHT22;4099;52.684;9.918;2023-05-29T04:35:58;11.20;99.90
8114;DHT22;4099;52.684;9.918;2023-05-29T04:41:01;11.20;99.90
8114;DHT22;4099;52.684;9.918;2023-05-29T04:46:05;11.20;99.90
8114;DHT22;4099;52.684;9.918;2023-05-29T04:51:10;11.10;99.90
8114;DHT22;4099;52.684;9.918;2023-05-29T04:56:12;11.10;99.90
8114;DHT22;4099;52.684;9.918;2023-05-29T05:01:16;11.10;99.90
8114;DHT22;4099;52.684;9.918;2023-05-29T05:06:18;11.20;99.90
8114;DHT22;4099;52.684;9.918;2023-05-29T05:11:21;11.50;99.90
8114;DHT22;4099;52.684;9.918;2023-05-29T05:16:25;11.60;99.90
8114;DHT22;4099;52.684;9.918;2023-05-29T05:21:27;11.80;99.90
8114;DHT22;4099;52.684;9.918;2023-05-29T05:26:31;11.80;99.90
8114;DHT22;4099;52.684;9.918;2023-05-29T05:31:37;11.90;99.90
8114;DHT22;4099;52.684;9.918;2023-05-29T05:36:39;12.00;99.90
8114;DHT22;4099;52.684;9.918;2023-05-29T05:41:46;12.10;99.90
8114;DHT22;4099;52.684;9.918;2023-05-29T05:46:56;11.90;99.90
8114;DHT22;4099;52.684;9.918;2023-05-29T05:51:57;11.90;99.90
8114;DHT22;4099;52.684;9.918;2023-05-29T05:57:00;11.90;99.90
8114;DHT22;4099;52.684;9.918;2023-05-29T06:02:05;11.90;99.90
8114;DHT22;4099;52.684;9.918;2023-05-29T06:07:07;12.10;99.90
8114;DHT22;4099;52.684;9.918;2023-05-29T06:12:10;12.30;99.90
8114;DHT22;4099;52.684;9.918;2023-05-29T06:17:22;12.60;99.90
8114;DHT22;4099;52.684;9.918;2023-05-29T06:22:24;12.80;99.90
8114;DHT22;4099;52.684;9.918;2023-05-29T06:27:26;12.50;99.90
8114;DHT22;4099;52.684;9.918;2023-05-29T06:32:29;13.00;99.90
8114;DHT22;4099;52.684;9.918;2023-05-29T06:37:33;13.00;99.90
8114;DHT22;4099;52.684;9.918;2023-05-29T06:42:36;13.30;99.90
8114;DHT22;4099;52.684;9.918;2023-05-29T06:47:49;13.70;99.90
8114;DHT22;4099;52.684;9.918;2023-05-29T06:52:51;14.20;99.90
8114;DHT22;4099;52.684;9.918;2023-05-29T06:58:09;14.40;99.90
8114;DHT22;4099;52.684;9.918;2023-05-29T07:03:12;14.50;99.90
8114;DHT22;4099;52.684;9.918;2023-05-29T07:08:14;14.80;99.90
8114;DHT22;4099;52.684;9.918;2023-05-29T07:13:16;14.70;99.90
8114;DHT22;4099;52.684;9.918;2023-05-29T07:18:20;14.40;99.90
8114;DHT22;4099;52.684;9.918;2023-05-29T07:23:22;14.30;99.90
8114;DHT22;4099;52.684;9.918;2023-05-29T07:28:24;14.50;99.90
8114;DHT22;4099;52.684;9.918;2023-05-29T07:33:28;14.40;99.90
8114;DHT22;4099;52.684;9.918;2023-05-29T07:38:31;14.70;99.90
8114;DHT22;4099;52.684;9.918;2023-05-29T07:43:34;15.00;99.90
8114;DHT22;4099;52.684;9.918;2023-05-29T07:48:41;15.30;99.90
8114;DHT22;4099;52.684;9.918;2023-05-29T07:53:44;16.10;99.00
8114;DHT22;4099;52.684;9.918;2023-05-29T07:58:46;16.40;97.30
8114;DHT22;4099;52.684;9.918;2023-05-29T08:03:49;17.00;95.30
8114;DHT22;4099;52.684;9.918;2023-05-29T08:09:04;17.30;94.40
8114;DHT22;4099;52.684;9.918;2023-05-29T08:14:07;17.30;93.30
8114;DHT22;4099;52.684;9.918;2023-05-29T08:19:12;17.10;94.70
8114;DHT22;4099;52.684;9.918;2023-05-29T08:24:14;17.50;92.90
8114;DHT22;4099;52.684;9.918;2023-05-29T08:29:15;17.70;93.30
8114;DHT22;4099;52.684;9.918;2023-05-29T08:34:18;17.50;94.20
8114;DHT22;4099;52.684;9.918;2023-05-29T08:39:20;18.20;93.10
8114;DHT22;4099;52.684;9.918;2023-05-29T08:44:22;18.30;91.10
8114;DHT22;4099;52.684;9.918;2023-05-29T08:49:28;18.30;91.90
8114;DHT22;4099;52.684;9.918;2023-05-29T08:54:33;18.10;90.60
8114;DHT22;4099;52.684;9.918;2023-05-29T08:59:36;18.40;90.80
8114;DHT22;4099;52.684;9.918;2023-05-29T09:04:41;18.70;89.80
8114;DHT22;4099;52.684;9.918;2023-05-29T09:09:45;18.00;90.30
8114;DHT22;4099;52.684;9.918;2023-05-29T09:14:47;18.50;90.80
8114;DHT22;4099;52.684;9.918;2023-05-29T09:19:50;18.70;89.20
8114;DHT22;4099;52.684;9.918;2023-05-29T09:24:52;19.40;87.60
8114;DHT22;4099;52.684;9.918;2023-05-29T09:29:54;19.10;87.00
8114;DHT22;4099;52.684;9.918;2023-05-29T09:35:00;19.30;89.60
8114;DHT22;4099;52.684;9.918;2023-05-29T09:40:02;19.80;90.50
8114;DHT22;4099;52.684;9.918;2023-05-29T09:45:06;20.10;86.90
8114;DHT22;4099;52.684;9.918;2023-05-29T09:50:18;19.90;86.10
8114;DHT22;4099;52.684;9.918;2023-05-29T09:55:21;19.90;84.20
8114;DHT22;4099;52.684;9.918;2023-05-29T10:00:23;20.10;82.70
8114;DHT22;4099;52.684;9.918;2023-05-29T10:05:26;19.60;86.60
8114;DHT22;4099;52.684;9.918;2023-05-29T10:10:29;19.60;89.80
8114;DHT22;4099;52.684;9.918;2023-05-29T10:15:32;19.90;90.90
8114;DHT22;4099;52.684;9.918;2023-05-29T10:20:36;19.50;87.50
8114;DHT22;4099;52.684;9.918;2023-05-29T10:25:40;19.90;87.30
8114;DHT22;4099;52.684;9.918;2023-05-29T10:30:47;20.50;84.10
8114;DHT22;4099;52.684;9.918;2023-05-29T10:35:55;20.40;81.30
8114;DHT22;4099;52.684;9.918;2023-05-29T10:41:30;20.50;83.20
8114;DHT22;4099;52.684;9.918;2023-05-29T10:47:04;20.50;83.60
8114;DHT22;4099;52.684;9.918;2023-05-29T10:52:10;20.60;78.60
8114;DHT22;4099;52.684;9.918;2023-05-29T10:57:12;20.80;79.60
8114;DHT22;4099;52.684;9.918;2023-05-29T11:02:18;20.80;79.80
8114;DHT22;4099;52.684;9.918;2023-05-29T11:07:34;21.30;79.40
8114;DHT22;4099;52.684;9.918;2023-05-29T11:12:55;20.80;78.40
8114;DHT22;4099;52.684;9.918;2023-05-29T11:18:05;21.30;80.80
8114;DHT22;4099;52.684;9.918;2023-05-29T11:23:14;21.90;75.80
8114;DHT22;4099;52.684;9.918;2023-05-29T11:28:17;21.70;73.00
8114;DHT22;4099;52.684;9.918;2023-05-29T11:33:24;21.90;73.00
8114;DHT22;4099;52.684;9.918;2023-05-29T11:38:28;21.80;69.00
8114;DHT22;4099;52.684;9.918;2023-05-29T11:43:31;21.80;61.90
8114;DHT22;4099;52.684;9.918;2023-05-29T11:48:44;22.80;62.50
8114;DHT22;4099;52.684;9.918;2023-05-29T11:53:48;22.70;64.90
8114;DHT22;4099;52.684;9.918;2023-05-29T11:58:53;22.70;64.40
8114;DHT22;4099;52.684;9.918;2023-05-29T12:03:57;22.00;56.60
8114;DHT22;4099;52.684;9.918;2023-05-29T12:09:00;22.50;57.20
8114;DHT22;4099;52.684;9.918;2023-05-29T12:14:03;22.40;53.60
8114;DHT22;4099;52.684;9.918;2023-05-29T12:19:05;22.00;52.40
8114;DHT22;4099;52.684;9.918;2023-05-29T12:24:08;22.10;54.30
8114;DHT22;4099;52.684;9.918;2023-05-29T12:29:10;23.10;43.70
8114;DHT22;4099;52.684;9.918;2023-05-29T12:34:12;22.50;47.50
8114;DHT22;4099;52.684;9.918;2023-05-29T12:39:16;23.50;51.80
8114;DHT22;4099;52.684;9.918;2023-05-29T12:44:18;24.10;48.90
8114;DHT22;4099;52.684;9.918;2023-05-29T12:49:20;25.50;50.10
8114;DHT22;4099;52.684;9.918;2023-05-29T12:54:27;26.60;51.80
8114;DHT22;4099;52.684;9.918;2023-05-29T12:59:29;25.10;42.10
8114;DHT22;4099;52.684;9.918;2023-05-29T13:04:31;25.00;47.50
8114;DHT22;4099;52.684;9.918;2023-05-29T13:09:34;25.70;41.90
8114;DHT22;4099;52.684;9.918;2023-05-29T13:14:36;25.60;40.30
8114;DHT22;4099;52.684;9.918;2023-05-29T13:19:37;26.60;40.90
8114;DHT22;4099;52.684;9.918;2023-05-29T13:24:41;27.70;40.60
8114;DHT22;4099;52.684;9.918;2023-05-29T13:29:43;28.30;37.50
8114;DHT22;4099;52.684;9.918;2023-05-29T13:34:45;26.20;34.10
8114;DHT22;4099;52.684;9.918;2023-05-29T13:39:50;27.80;34.70
8114;DHT22;4099;52.684;9.918;2023-05-29T13:44:53;28.50;29.60
8114;DHT22;4099;52.684;9.918;2023-05-29T13:49:55;29.60;31.30
8114;DHT22;4099;52.684;9.918;2023-05-29T13:54:58;28.90;31.80
8114;DHT22;4099;52.684;9.918;2023-05-29T14:00:06;28.90;29.20
8114;DHT22;4099;52.684;9.918;2023-05-29T14:05:08;29.70;31.80
8114;DHT22;4099;52.684;9.918;2023-05-29T14:10:12;29.30;30.60
8114;DHT22;4099;52.684;9.918;2023-05-29T14:15:14;30.10;30.10
8114;DHT22;4099;52.684;9.918;2023-05-29T14:20:16;30.10;29.10
8114;DHT22;4099;52.684;9.918;2023-05-29T14:25:19;30.20;27.00
8114;DHT22;4099;52.684;9.918;2023-05-29T14:30:21;30.00;27.60
8114;DHT22;4099;52.684;9.918;2023-05-29T14:35:22;30.50;27.70
8114;DHT22;4099;52.684;9.918;2023-05-29T14:40:25;29.30;28.50
8114;DHT22;4099;52.684;9.918;2023-05-29T14:45:27;29.50;27.00
8114;DHT22;4099;52.684;9.918;2023-05-29T14:50:29;30.00;28.40
8114;DHT22;4099;52.684;9.918;2023-05-29T14:55:32;29.50;25.90
8114;DHT22;4099;52.684;9.918;2023-05-29T15:00:38;28.40;26.40
8114;DHT22;4099;52.684;9.918;2023-05-29T15:05:40;25.80;27.00
8114;DHT22;4099;52.684;9.918;2023-05-29T15:10:44;23.90;28.80
8114;DHT22;4099;52.684;9.918;2023-05-29T15:15:45;23.10;29.70
8114;DHT22;4099;52.684;9.918;2023-05-29T15:20:47;22.70;28.10
8114;DHT22;4099;52.684;9.918;2023-05-29T15:25:50;22.70;29.90
8114;DHT22;4099;52.684;9.918;2023-05-29T15:30:52;22.80;31.30
8114;DHT22;4099;52.684;9.918;2023-05-29T15:35:53;22.70;32.40
8114;DHT22;4099;52.684;9.918;2023-05-29T15:40:56;22.20;33.60
8114;DHT22;4099;52.684;9.918;2023-05-29T15:45:58;22.60;29.80
8114;DHT22;4099;52.684;9.918;2023-05-29T15:51:00;22.70;29.50
8114;DHT22;4099;52.684;9.918;2023-05-29T15:56:03;22.50;29.30
8114;DHT22;4099;52.684;9.918;2023-05-29T16:01:05;22.40;30.80
8114;DHT22;4099;52.684;9.918;2023-05-29T16:06:07;22.60;33.10
8114;DHT22;4099;52.684;9.918;2023-05-29T16:11:10;23.20;32.10
8114;DHT22;4099;52.684;9.918;2023-05-29T16:16:12;23.60;33.40
8114;DHT22;4099;52.684;9.918;2023-05-29T16:21:14;22.90;34.80
8114;DHT22;4099;52.684;9.918;2023-05-29T16:26:17;22.60;35.50
8114;DHT22;4099;52.684;9.918;2023-05-29T16:31:19;23.40;39.70
8114;DHT22;4099;52.684;9.918;2023-05-29T16:36:21;26.40;36.00
8114;DHT22;4099;52.684;9.918;2023-05-29T16:41:24;27.40;33.50
8114;DHT22;4099;52.684;9.918;2023-05-29T16:46:26;27.50;31.20
8114;DHT22;4099;52.684;9.918;2023-05-29T16:51:28;27.00;33.00
8114;DHT22;4099;52.684;9.918;2023-05-29T16:56:32;27.50;32.90
8114;DHT22;4099;52.684;9.918;2023-05-29T17:01:33;27.40;34.90
8114;DHT22;4099;52.684;9.918;2023-05-29T17:06:35;26.40;33.60
8114;DHT22;4099;52.684;9.918;2023-05-29T17:11:39;25.60;35.50
8114;DHT22;4099;52.684;9.918;2023-05-29T17:16:40;26.30;36.30
8114;DHT22;4099;52.684;9.918;2023-05-29T17:21:42;26.70;36.90
8114;DHT22;4099;52.684;9.918;2023-05-29T17:26:47;27.50;36.00
8114;DHT22;4099;52.684;9.918;2023-05-29T17:31:48;25.40;37.40
8114;DHT22;4099;52.684;9.918;2023-05-29T17:36:50;23.90;39.60
8114;DHT22;4099;52.684;9.918;2023-05-29T17:41:53;22.40;41.40
8114;DHT22;4099;52.684;9.918;2023-05-29T17:46:55;20.90;44.10
8114;DHT22;4099;52.684;9.918;2023-05-29T17:51:57;20.20;46.00
8114;DHT22;4099;52.684;9.918;2023-05-29T17:57:00;19.90;46.50
8114;DHT22;4099;52.684;9.918;2023-05-29T18:02:02;19.70;47.20
8114;DHT22;4099;52.684;9.918;2023-05-29T18:07:04;19.30;49.30
8114;DHT22;4099;52.684;9.918;2023-05-29T18:12:08;18.90;49.10
8114;DHT22;4099;52.684;9.918;2023-05-29T18:17:10;18.60;50.20
8114;DHT22;4099;52.684;9.918;2023-05-29T18:22:12;18.30;51.10
8114;DHT22;4099;52.684;9.918;2023-05-29T18:27:15;18.10;53.00
8114;DHT22;4099;52.684;9.918;2023-05-29T18:32:17;18.00;54.20
8114;DHT22;4099;52.684;9.918;2023-05-29T18:37:18;17.90;54.90
8114;DHT22;4099;52.684;9.918;2023-05-29T18:42:22;17.50;55.90
8114;DHT22;4099;52.684;9.918;2023-05-29T18:47:24;17.20;56.80
8114;DHT22;4099;52.684;9.918;2023-05-29T18:52:26;16.90;58.50
8114;DHT22;4099;52.684;9.918;2023-05-29T18:57:29;16.60;59.50
8114;DHT22;4099;52.684;9.918;2023-05-29T19:02:31;16.50;61.60
8114;DHT22;4099;52.684;9.918;2023-05-29T19:07:32;16.30;64.70
8114;DHT22;4099;52.684;9.918;2023-05-29T19:12:36;16.00;66.50
8114;DHT22;4099;52.684;9.918;2023-05-29T19:17:38;15.90;69.40
8114;DHT22;4099;52.684;9.918;2023-05-29T19:22:40;15.70;68.60
8114;DHT22;4099;52.684;9.918;2023-05-29T19:27:43;15.60;71.00
8114;DHT22;4099;52.684;9.918;2023-05-29T19:32:44;15.40;73.00
8114;DHT22;4099;52.684;9.918;2023-05-29T19:37:46;15.10;75.10
8114;DHT22;4099;52.684;9.918;2023-05-29T19:42:49;15.00;77.30
8114;DHT22;4099;52.684;9.918;2023-05-29T19:47:51;14.80;83.90
8114;DHT22;4099;52.684;9.918;2023-05-29T19:52:53;14.70;87.30
8114;DHT22;4099;52.684;9.918;2023-05-29T19:57:56;14.40;91.00
8114;DHT22;4099;52.684;9.918;2023-05-29T20:02:58;14.30;93.10
8114;DHT22;4099;52.684;9.918;2023-05-29T20:08:00;14.10;95.70
8114;DHT22;4099;52.684;9.918;2023-05-29T20:13:03;14.10;96.60
8114;DHT22;4099;52.684;9.918;2023-05-29T20:18:05;13.80;98.60
8114;DHT22;4099;52.684;9.918;2023-05-29T20:23:07;13.70;99.90
8114;DHT22;4099;52.684;9.918;2023-05-29T20:28:10;13.60;99.90
8114;DHT22;4099;52.684;9.918;2023-05-29T20:33:11;13.50;99.90
8114;DHT22;4099;52.684;9.918;2023-05-29T20:38:13;13.40;99.90
8114;DHT22;4099;52.684;9.918;2023-05-29T20:43:17;13.20;99.90
8114;DHT22;4099;52.684;9.918;2023-05-29T20:48:21;13.10;99.90
8114;DHT22;4099;52.684;9.918;2023-05-29T20:53:23;13.00;99.90
8114;DHT22;4099;52.684;9.918;2023-05-29T20:58:26;12.80;99.90
8114;DHT22;4099;52.684;9.918;2023-05-29T21:03:28;12.70;99.90
8114;DHT22;4099;52.684;9.918;2023-05-29T21:08:29;12.70;99.90
8114;DHT22;4099;52.684;9.918;2023-05-29T21:13:32;12.40;99.90
8114;DHT22;4099;52.684;9.918;2023-05-29T21:18:36;12.30;99.90
8114;DHT22;4099;52.684;9.918;2023-05-29T21:23:37;12.30;99.90
8114;DHT22;4099;52.684;9.918;2023-05-29T21:28:41;12.10;99.90
8114;DHT22;4099;52.684;9.918;2023-05-29T21:33:45;12.10;99.90
8114;DHT22;4099;52.684;9.918;2023-05-29T21:38:48;11.90;99.90
8114;DHT22;4099;52.684;9.918;2023-05-29T21:43:53;11.70;99.90
8114;DHT22;4099;52.684;9.918;2023-05-29T21:48:55;11.50;99.90
8114;DHT22;4099;52.684;9.918;2023-05-29T21:53:57;11.50;99.90
8114;DHT22;4099;52.684;9.918;2023-05-29T21:59:00;11.30;99.90
8114;DHT22;4099;52.684;9.918;2023-05-29T22:04:02;11.30;99.90
8114;DHT22;4099;52.684;9.918;2023-05-29T22:09:04;11.20;99.90
8114;DHT22;4099;52.684;9.918;2023-05-29T22:14:07;10.90;99.90
8114;DHT22;4099;52.684;9.918;2023-05-29T22:19:08;10.80;99.90
8114;DHT22;4099;52.684;9.918;2023-05-29T22:24:10;10.60;99.90
8114;DHT22;4099;52.684;9.918;2023-05-29T22:29:13;10.40;99.90
8114;DHT22;4099;52.684;9.918;2023-05-29T22:34:15;10.40;99.90
8114;DHT22;4099;52.684;9.918;2023-05-29T22:39:17;10.30;99.90
8114;DHT22;4099;52.684;9.918;2023-05-29T22:44:22;10.40;99.90
8114;DHT22;4099;52.684;9.918;2023-05-29T22:49:24;10.40;99.90
8114;DHT22;4099;52.684;9.918;2023-05-29T22:54:25;10.40;99.90
8114;DHT22;4099;52.684;9.918;2023-05-29T22:59:29;10.30;99.90
8114;DHT22;4099;52.684;9.918;2023-05-29T23:04:31;10.20;99.90
8114;DHT22;4099;52.684;9.918;2023-05-29T23:09:33;10.10;99.90
8114;DHT22;4099;52.684;9.918;2023-05-29T23:14:36;10.00;99.90
8114;DHT22;4099;52.684;9.918;2023-05-29T23:19:38;9.90;99.90
8114;DHT22;4099;52.684;9.918;2023-05-29T23:24:39;9.70;99.90
8114;DHT22;4099;52.684;9.918;2023-05-29T23:29:42;9.70;99.90
8114;DHT22;4099;52.684;9.918;2023-05-29T23:34:45;9.60;99.90
8114;DHT22;4099;52.684;9.918;2023-05-29T23:39:47;9.40;99.90
8114;DHT22;4099;52.684;9.918;2023-05-29T23:44:50;9.30;99.90
8114;DHT22;4099;52.684;9.918;2023-05-29T23:49:51;9.10;99.90
8114;DHT22;4099;52.684;9.918;2023-05-29T23:54:53;9.10;99.90
8114;DHT22;4099;52.684;9.918;2023-05-29T23:59:57;9.00;99.90
